sensor_id;sensor_type;location;lat;lon;timestamp;temperature;humidity
10812;DHT22;5458;51.496;7.334;2023-01-09T00:01:33;9.70;99.90
10812;DHT22;5458;51.496;7.334;2023-01-09T00:03:59;9.60;99.90
10812;DHT22;5458;51.496;7.334;2023-01-09T00:06:25;9.60;99.90
10812;DHT22;5458;51.496;7.334;2023-01-09T00:08:51;9.60;99.90
10812;DHT22;5458;51.496;7.334;2023-01-09T00:11:17;9.70;99.90
10812;DHT22;5458;51.496;7.334;2023-01-09T00:13:43;9.60;99.90
10812;DHT22;5458;51.496;7.334;2023-01-09T00:16:08;9.60;99.90
10812;DHT22;5458;51.496;7.334;2023-01-09T00:18:35;9.60;99.90
10812;DHT22;5458;51.496;7.334;2023-01-09T00:21:02;9.60;99.90
10812;DHT22;5458;51.496;7.334;2023-01-09T00:23:28;9.60;99.90
10812;DHT22;5458;51.496;7.334;2023-01-09T00:26:15;9.60;99.90
10812;DHT22;5458;51.496;7.334;2023-01-09T00:28:42;9.50;99.90
10812;DHT22;5458;51.496;7.334;2023-01-09T00:31:08;9.50;99.90
10812;DHT22;5458;51.496;7.334;2023-01-09T00:33:43;9.50;99.90
10812;DHT22;5458;51.496;7.334;2023-01-09T00:36:09;9.50;99.90
10812;DHT22;5458;51.496;7.334;2023-01-09T00:38:35;9.40;99.90
10812;DHT22;5458;51.496;7.334;2023-01-09T00:41:06;9.50;99.90
10812;DHT22;5458;51.496;7.334;2023-01-09T00:43:36;9.50;99.90
10812;DHT22;5458;51.496;7.334;2023-01-09T00:46:05;9.50;99.90
10812;DHT22;5458;51.496;7.334;2023-01-09T00:48:31;9.40;99.90
10812;DHT22;5458;51.496;7.334;2023-01-09T00:50:58;9.40;99.90
10812;DHT22;5458;51.496;7.334;2023-01-09T00:53:28;9.40;99.90
10812;DHT22;5458;51.496;7.334;2023-01-09T00:55:55;9.40;99.90
10812;DHT22;5458;51.496;7.334;2023-01-09T00:58:23;9.40;99.90
10812;DHT22;5458;51.496;7.334;2023-01-09T01:00:49;9.40;99.90
10812;DHT22;5458;51.496;7.334;2023-01-09T01:03:14;9.40;99.90
10812;DHT22;5458;51.496;7.334;2023-01-09T01:05:40;9.30;99.90
10812;DHT22;5458;51.496;7.334;2023-01-09T01:08:24;9.30;99.90
10812;DHT22;5458;51.496;7.334;2023-01-09T01:10:50;9.20;99.90
10812;DHT22;5458;51.496;7.334;2023-01-09T01:13:16;9.30;99.90
10812;DHT22;5458;51.496;7.334;2023-01-09T01:15:43;9.20;99.90
10812;DHT22;5458;51.496;7.334;2023-01-09T01:18:11;9.20;99.90
10812;DHT22;5458;51.496;7.334;2023-01-09T01:20:39;9.20;99.90
10812;DHT22;5458;51.496;7.334;2023-01-09T01:23:05;9.20;99.90
10812;DHT22;5458;51.496;7.334;2023-01-09T01:25:31;9.20;99.90
10812;DHT22;5458;51.496;7.334;2023-01-09T01:27:57;9.20;99.90
10812;DHT22;5458;51.496;7.334;2023-01-09T01:30:22;9.20;99.90
10812;DHT22;5458;51.496;7.334;2023-01-09T01:32:48;9.20;99.90
10812;DHT22;5458;51.496;7.334;2023-01-09T01:35:13;9.20;99.90
10812;DHT22;5458;51.496;7.334;2023-01-09T01:37:39;9.20;99.90
10812;DHT22;5458;51.496;7.334;2023-01-09T01:40:06;9.20;99.90
10812;DHT22;5458;51.496;7.334;2023-01-09T01:42:33;9.20;99.90
10812;DHT22;5458;51.496;7.334;2023-01-09T01:49:58;9.10;99.90
10812;DHT22;5458;51.496;7.334;2023-01-09T01:52:25;9.10;99.90
10812;DHT22;5458;51.496;7.334;2023-01-09T01:54:51;9.10;99.90
10812;DHT22;5458;51.496;7.334;2023-01-09T01:57:17;9.10;99.90
10812;DHT22;5458;51.496;7.334;2023-01-09T01:59:49;9.00;99.90
10812;DHT22;5458;51.496;7.334;2023-01-09T02:02:19;9.00;99.90
10812;DHT22;5458;51.496;7.334;2023-01-09T02:04:46;9.00;99.90
10812;DHT22;5458;51.496;7.334;2023-01-09T02:07:12;9.00;99.90
10812;DHT22;5458;51.496;7.334;2023-01-09T02:09:39;9.10;99.90
10812;DHT22;5458;51.496;7.334;2023-01-09T02:12:34;9.10;99.90
10812;DHT22;5458;51.496;7.334;2023-01-09T02:18:01;9.10;99.90
10812;DHT22;5458;51.496;7.334;2023-01-09T02:20:39;9.10;99.90
10812;DHT22;5458;51.496;7.334;2023-01-09T02:31:35;9.20;99.90
10812;DHT22;5458;51.496;7.334;2023-01-09T02:34:33;9.20;99.90
10812;DHT22;5458;51.496;7.334;2023-01-09T02:37:06;9.10;99.90
10812;DHT22;5458;51.496;7.334;2023-01-09T02:42:24;9.10;99.90
10812;DHT22;5458;51.496;7.334;2023-01-09T02:44:50;9.20;99.90
10812;DHT22;5458;51.496;7.334;2023-01-09T02:49:51;9.20;99.90
10812;DHT22;5458;51.496;7.334;2023-01-09T02:58:30;9.10;99.90
10812;DHT22;5458;51.496;7.334;2023-01-09T03:01:23;9.00;99.90
10812;DHT22;5458;51.496;7.334;2023-01-09T03:04:07;8.90;99.90
10812;DHT22;5458;51.496;7.334;2023-01-09T03:06:37;8.80;99.90
10812;DHT22;5458;51.496;7.334;2023-01-09T03:09:27;8.80;99.90
10812;DHT22;5458;51.496;7.334;2023-01-09T03:12:08;8.80;99.90
10812;DHT22;5458;51.496;7.334;2023-01-09T03:14:37;8.80;99.90
10812;DHT22;5458;51.496;7.334;2023-01-09T03:17:07;8.70;99.90
10812;DHT22;5458;51.496;7.334;2023-01-09T03:19:36;8.70;99.90
10812;DHT22;5458;51.496;7.334;2023-01-09T03:22:02;8.70;99.90
10812;DHT22;5458;51.496;7.334;2023-01-09T03:24:28;8.70;99.90
10812;DHT22;5458;51.496;7.334;2023-01-09T03:26:53;8.70;99.90
10812;DHT22;5458;51.496;7.334;2023-01-09T03:29:20;8.80;99.90
10812;DHT22;5458;51.496;7.334;2023-01-09T03:31:45;8.80;99.90
10812;DHT22;5458;51.496;7.334;2023-01-09T03:34:11;8.80;99.90
10812;DHT22;5458;51.496;7.334;2023-01-09T03:36:36;8.80;99.90
10812;DHT22;5458;51.496;7.334;2023-01-09T03:39:02;8.80;99.90
10812;DHT22;5458;51.496;7.334;2023-01-09T03:41:28;8.90;99.90
10812;DHT22;5458;51.496;7.334;2023-01-09T03:43:53;8.80;99.90
10812;DHT22;5458;51.496;7.334;2023-01-09T03:46:19;8.90;99.90
10812;DHT22;5458;51.496;7.334;2023-01-09T03:48:44;8.90;99.90
10812;DHT22;5458;51.496;7.334;2023-01-09T03:51:10;8.90;99.90
10812;DHT22;5458;51.496;7.334;2023-01-09T03:53:35;8.90;99.90
10812;DHT22;5458;51.496;7.334;2023-01-09T03:56:01;8.90;99.90
10812;DHT22;5458;51.496;7.334;2023-01-09T03:58:26;8.80;99.90
10812;DHT22;5458;51.496;7.334;2023-01-09T04:00:57;8.90;99.90
10812;DHT22;5458;51.496;7.334;2023-01-09T04:03:23;8.90;99.90
10812;DHT22;5458;51.496;7.334;2023-01-09T04:05:49;8.90;99.90
10812;DHT22;5458;51.496;7.334;2023-01-09T04:08:16;8.90;99.90
10812;DHT22;5458;51.496;7.334;2023-01-09T04:10:46;8.90;99.90
10812;DHT22;5458;51.496;7.334;2023-01-09T04:13:12;8.90;99.90
10812;DHT22;5458;51.496;7.334;2023-01-09T04:15:37;8.90;99.90
10812;DHT22;5458;51.496;7.334;2023-01-09T04:18:03;8.90;99.90
10812;DHT22;5458;51.496;7.334;2023-01-09T04:20:29;8.80;99.90
10812;DHT22;5458;51.496;7.334;2023-01-09T04:22:54;8.80;99.90
10812;DHT22;5458;51.496;7.334;2023-01-09T04:25:20;8.90;99.90
10812;DHT22;5458;51.496;7.334;2023-01-09T04:27:47;8.90;99.90
10812;DHT22;5458;51.496;7.334;2023-01-09T04:30:13;8.80;99.90
10812;DHT22;5458;51.496;7.334;2023-01-09T04:32:39;8.80;99.90
10812;DHT22;5458;51.496;7.334;2023-01-09T04:35:05;8.80;99.90
10812;DHT22;5458;51.496;7.334;2023-01-09T04:37:31;8.80;99.90
10812;DHT22;5458;51.496;7.334;2023-01-09T04:39:56;8.80;99.90
10812;DHT22;5458;51.496;7.334;2023-01-09T04:42:22;8.80;99.90
10812;DHT22;5458;51.496;7.334;2023-01-09T04:44:48;8.80;99.90
10812;DHT22;5458;51.496;7.334;2023-01-09T04:47:18;8.80;99.90
10812;DHT22;5458;51.496;7.334;2023-01-09T04:49:44;8.70;99.90
10812;DHT22;5458;51.496;7.334;2023-01-09T04:52:09;8.60;99.90
10812;DHT22;5458;51.496;7.334;2023-01-09T04:54:35;8.60;99.90
10812;DHT22;5458;51.496;7.334;2023-01-09T04:57:01;8.50;99.90
10812;DHT22;5458;51.496;7.334;2023-01-09T04:59:26;8.50;99.90
10812;DHT22;5458;51.496;7.334;2023-01-09T05:01:52;8.40;99.90
10812;DHT22;5458;51.496;7.334;2023-01-09T05:04:19;8.30;99.90
10812;DHT22;5458;51.496;7.334;2023-01-09T05:06:44;8.30;99.90
10812;DHT22;5458;51.496;7.334;2023-01-09T05:09:10;8.30;99.90
10812;DHT22;5458;51.496;7.334;2023-01-09T05:11:35;8.30;99.90
10812;DHT22;5458;51.496;7.334;2023-01-09T05:14:01;8.30;99.90
10812;DHT22;5458;51.496;7.334;2023-01-09T05:16:26;8.30;99.90
10812;DHT22;5458;51.496;7.334;2023-01-09T05:18:52;8.20;99.90
10812;DHT22;5458;51.496;7.334;2023-01-09T05:21:24;8.20;99.90
10812;DHT22;5458;51.496;7.334;2023-01-09T05:23:50;8.20;99.90
10812;DHT22;5458;51.496;7.334;2023-01-09T05:26:15;8.20;99.90
10812;DHT22;5458;51.496;7.334;2023-01-09T05:28:41;8.10;99.90
10812;DHT22;5458;51.496;7.334;2023-01-09T05:31:07;8.10;99.90
10812;DHT22;5458;51.496;7.334;2023-01-09T05:33:32;8.10;99.90
10812;DHT22;5458;51.496;7.334;2023-01-09T05:35:58;8.10;99.90
10812;DHT22;5458;51.496;7.334;2023-01-09T05:38:23;8.10;99.90
10812;DHT22;5458;51.496;7.334;2023-01-09T05:40:49;8.20;99.90
10812;DHT22;5458;51.496;7.334;2023-01-09T05:43:14;8.20;99.90
10812;DHT22;5458;51.496;7.334;2023-01-09T05:45:40;8.20;99.90
10812;DHT22;5458;51.496;7.334;2023-01-09T05:48:05;8.30;99.90
10812;DHT22;5458;51.496;7.334;2023-01-09T05:50:31;8.30;99.90
10812;DHT22;5458;51.496;7.334;2023-01-09T05:52:56;8.40;99.90
10812;DHT22;5458;51.496;7.334;2023-01-09T05:55:22;8.30;99.90
10812;DHT22;5458;51.496;7.334;2023-01-09T05:57:48;8.30;99.90
10812;DHT22;5458;51.496;7.334;2023-01-09T06:00:14;8.40;99.90
10812;DHT22;5458;51.496;7.334;2023-01-09T06:02:39;8.30;99.90
10812;DHT22;5458;51.496;7.334;2023-01-09T06:05:05;8.30;99.90
10812;DHT22;5458;51.496;7.334;2023-01-09T06:07:31;8.30;99.90
10812;DHT22;5458;51.496;7.334;2023-01-09T06:09:59;8.40;99.90
10812;DHT22;5458;51.496;7.334;2023-01-09T06:12:24;8.30;99.90
10812;DHT22;5458;51.496;7.334;2023-01-09T06:14:50;8.30;99.90
10812;DHT22;5458;51.496;7.334;2023-01-09T06:17:15;8.30;99.90
10812;DHT22;5458;51.496;7.334;2023-01-09T06:19:41;8.30;99.90
10812;DHT22;5458;51.496;7.334;2023-01-09T06:22:06;8.30;99.90
10812;DHT22;5458;51.496;7.334;2023-01-09T06:24:32;8.30;99.90
10812;DHT22;5458;51.496;7.334;2023-01-09T06:26:57;8.30;99.90
10812;DHT22;5458;51.496;7.334;2023-01-09T06:29:23;8.30;99.90
10812;DHT22;5458;51.496;7.334;2023-01-09T06:31:49;8.30;99.90
10812;DHT22;5458;51.496;7.334;2023-01-09T06:34:14;8.30;99.90
10812;DHT22;5458;51.496;7.334;2023-01-09T06:36:40;8.30;99.90
10812;DHT22;5458;51.496;7.334;2023-01-09T06:39:05;8.30;99.90
10812;DHT22;5458;51.496;7.334;2023-01-09T06:41:31;8.30;99.90
10812;DHT22;5458;51.496;7.334;2023-01-09T06:43:56;8.40;99.90
10812;DHT22;5458;51.496;7.334;2023-01-09T06:46:22;8.40;99.90
10812;DHT22;5458;51.496;7.334;2023-01-09T06:48:47;8.40;99.90
10812;DHT22;5458;51.496;7.334;2023-01-09T06:51:13;8.40;99.90
10812;DHT22;5458;51.496;7.334;2023-01-09T06:53:38;8.40;99.90
10812;DHT22;5458;51.496;7.334;2023-01-09T06:56:04;8.40;99.90
10812;DHT22;5458;51.496;7.334;2023-01-09T06:58:30;8.30;99.90
10812;DHT22;5458;51.496;7.334;2023-01-09T07:00:57;8.30;99.90
10812;DHT22;5458;51.496;7.334;2023-01-09T07:03:23;8.40;99.90
10812;DHT22;5458;51.496;7.334;2023-01-09T07:05:49;8.30;99.90
10812;DHT22;5458;51.496;7.334;2023-01-09T07:08:15;8.30;99.90
10812;DHT22;5458;51.496;7.334;2023-01-09T07:10:43;8.30;99.90
10812;DHT22;5458;51.496;7.334;2023-01-09T07:13:10;8.30;99.90
10812;DHT22;5458;51.496;7.334;2023-01-09T07:15:36;8.30;99.90
10812;DHT22;5458;51.496;7.334;2023-01-09T07:18:02;8.30;99.90
10812;DHT22;5458;51.496;7.334;2023-01-09T07:20:28;8.30;99.90
10812;DHT22;5458;51.496;7.334;2023-01-09T07:22:54;8.30;99.90
10812;DHT22;5458;51.496;7.334;2023-01-09T07:25:20;8.20;99.90
10812;DHT22;5458;51.496;7.334;2023-01-09T07:27:45;8.30;99.90
10812;DHT22;5458;51.496;7.334;2023-01-09T07:30:11;8.20;99.90
10812;DHT22;5458;51.496;7.334;2023-01-09T07:32:37;8.20;99.90
10812;DHT22;5458;51.496;7.334;2023-01-09T07:35:06;8.20;99.90
10812;DHT22;5458;51.496;7.334;2023-01-09T07:37:32;8.30;99.90
10812;DHT22;5458;51.496;7.334;2023-01-09T07:39:58;8.20;99.90
10812;DHT22;5458;51.496;7.334;2023-01-09T07:42:24;8.20;99.90
10812;DHT22;5458;51.496;7.334;2023-01-09T07:44:49;8.30;99.90
10812;DHT22;5458;51.496;7.334;2023-01-09T07:47:15;8.30;99.90
10812;DHT22;5458;51.496;7.334;2023-01-09T07:49:41;8.30;99.90
10812;DHT22;5458;51.496;7.334;2023-01-09T07:52:06;8.30;99.90
10812;DHT22;5458;51.496;7.334;2023-01-09T07:54:32;8.30;99.90
10812;DHT22;5458;51.496;7.334;2023-01-09T07:56:57;8.30;99.90
10812;DHT22;5458;51.496;7.334;2023-01-09T07:59:23;8.30;99.90
10812;DHT22;5458;51.496;7.334;2023-01-09T08:01:49;8.30;99.90
10812;DHT22;5458;51.496;7.334;2023-01-09T08:04:14;8.40;99.90
10812;DHT22;5458;51.496;7.334;2023-01-09T08:06:40;8.30;99.90
10812;DHT22;5458;51.496;7.334;2023-01-09T08:09:07;8.30;99.90
10812;DHT22;5458;51.496;7.334;2023-01-09T08:11:33;8.30;99.90
10812;DHT22;5458;51.496;7.334;2023-01-09T08:13:58;8.30;99.90
10812;DHT22;5458;51.496;7.334;2023-01-09T08:16:24;8.40;99.90
10812;DHT22;5458;51.496;7.334;2023-01-09T08:18:49;8.40;99.90
10812;DHT22;5458;51.496;7.334;2023-01-09T08:21:15;8.40;99.90
10812;DHT22;5458;51.496;7.334;2023-01-09T08:23:41;8.40;99.90
10812;DHT22;5458;51.496;7.334;2023-01-09T08:26:06;8.40;99.90
10812;DHT22;5458;51.496;7.334;2023-01-09T08:28:32;8.50;99.90
10812;DHT22;5458;51.496;7.334;2023-01-09T08:30:57;8.50;99.90
10812;DHT22;5458;51.496;7.334;2023-01-09T08:33:23;8.60;99.90
10812;DHT22;5458;51.496;7.334;2023-01-09T08:35:49;8.60;99.90
10812;DHT22;5458;51.496;7.334;2023-01-09T08:38:14;8.70;99.90
10812;DHT22;5458;51.496;7.334;2023-01-09T08:40:40;8.50;99.90
10812;DHT22;5458;51.496;7.334;2023-01-09T08:43:05;8.50;99.90
10812;DHT22;5458;51.496;7.334;2023-01-09T08:45:50;8.50;99.90
10812;DHT22;5458;51.496;7.334;2023-01-09T08:48:34;8.50;99.90
10812;DHT22;5458;51.496;7.334;2023-01-09T08:50:59;8.40;99.90
10812;DHT22;5458;51.496;7.334;2023-01-09T08:53:25;8.40;99.90
10812;DHT22;5458;51.496;7.334;2023-01-09T08:55:50;8.50;99.90
10812;DHT22;5458;51.496;7.334;2023-01-09T08:58:16;8.50;99.90
10812;DHT22;5458;51.496;7.334;2023-01-09T09:00:41;8.60;99.90
10812;DHT22;5458;51.496;7.334;2023-01-09T09:03:08;8.70;99.90
10812;DHT22;5458;51.496;7.334;2023-01-09T09:05:35;8.60;99.90
10812;DHT22;5458;51.496;7.334;2023-01-09T09:08:00;8.50;99.90
10812;DHT22;5458;51.496;7.334;2023-01-09T09:10:28;8.50;99.90
10812;DHT22;5458;51.496;7.334;2023-01-09T09:12:56;8.40;99.90
10812;DHT22;5458;51.496;7.334;2023-01-09T09:15:23;8.50;99.90
10812;DHT22;5458;51.496;7.334;2023-01-09T09:17:51;8.50;99.90
10812;DHT22;5458;51.496;7.334;2023-01-09T09:20:19;8.50;99.90
10812;DHT22;5458;51.496;7.334;2023-01-09T09:22:46;8.50;99.90
10812;DHT22;5458;51.496;7.334;2023-01-09T09:25:11;8.40;99.90
10812;DHT22;5458;51.496;7.334;2023-01-09T09:27:37;8.40;99.90
10812;DHT22;5458;51.496;7.334;2023-01-09T09:30:03;8.50;99.90
10812;DHT22;5458;51.496;7.334;2023-01-09T09:32:30;8.50;99.90
10812;DHT22;5458;51.496;7.334;2023-01-09T09:34:56;8.60;99.90
10812;DHT22;5458;51.496;7.334;2023-01-09T09:37:22;8.50;99.90
10812;DHT22;5458;51.496;7.334;2023-01-09T09:39:47;8.50;99.90
10812;DHT22;5458;51.496;7.334;2023-01-09T09:45:22;8.60;99.90
10812;DHT22;5458;51.496;7.334;2023-01-09T09:51:03;8.50;99.90
10812;DHT22;5458;51.496;7.334;2023-01-09T09:53:49;8.60;99.90
10812;DHT22;5458;51.496;7.334;2023-01-09T09:56:17;8.50;99.90
10812;DHT22;5458;51.496;7.334;2023-01-09T09:58:51;8.50;99.90
10812;DHT22;5458;51.496;7.334;2023-01-09T10:01:23;8.50;99.90
10812;DHT22;5458;51.496;7.334;2023-01-09T10:03:58;8.50;99.90
10812;DHT22;5458;51.496;7.334;2023-01-09T10:06:31;8.50;99.90
10812;DHT22;5458;51.496;7.334;2023-01-09T10:08:59;8.50;99.90
10812;DHT22;5458;51.496;7.334;2023-01-09T10:14:10;8.70;99.90
10812;DHT22;5458;51.496;7.334;2023-01-09T10:22:32;8.70;99.90
10812;DHT22;5458;51.496;7.334;2023-01-09T10:25:28;8.70;99.90
10812;DHT22;5458;51.496;7.334;2023-01-09T10:33:44;8.70;99.90
10812;DHT22;5458;51.496;7.334;2023-01-09T10:39:03;8.70;99.90
10812;DHT22;5458;51.496;7.334;2023-01-09T10:44:29;8.80;99.90
10812;DHT22;5458;51.496;7.334;2023-01-09T10:47:00;8.80;99.90
10812;DHT22;5458;51.496;7.334;2023-01-09T10:49:28;8.90;99.90
10812;DHT22;5458;51.496;7.334;2023-01-09T10:52:04;8.90;99.90
10812;DHT22;5458;51.496;7.334;2023-01-09T10:54:51;9.00;99.90
10812;DHT22;5458;51.496;7.334;2023-01-09T10:57:43;9.10;99.90
10812;DHT22;5458;51.496;7.334;2023-01-09T11:00:21;9.30;99.90
10812;DHT22;5458;51.496;7.334;2023-01-09T11:02:47;9.30;99.90
10812;DHT22;5458;51.496;7.334;2023-01-09T11:05:23;9.40;99.90
10812;DHT22;5458;51.496;7.334;2023-01-09T11:08:18;9.40;99.90
10812;DHT22;5458;51.496;7.334;2023-01-09T11:10:48;9.30;99.90
10812;DHT22;5458;51.496;7.334;2023-01-09T11:13:18;9.30;99.90
10812;DHT22;5458;51.496;7.334;2023-01-09T11:15:44;9.30;99.90
10812;DHT22;5458;51.496;7.334;2023-01-09T11:18:21;9.20;99.90
10812;DHT22;5458;51.496;7.334;2023-01-09T11:20:49;9.10;99.90
10812;DHT22;5458;51.496;7.334;2023-01-09T11:23:30;9.20;99.90
10812;DHT22;5458;51.496;7.334;2023-01-09T11:25:58;9.20;99.90
10812;DHT22;5458;51.496;7.334;2023-01-09T11:28:24;9.20;99.90
10812;DHT22;5458;51.496;7.334;2023-01-09T11:30:58;9.30;99.90
10812;DHT22;5458;51.496;7.334;2023-01-09T11:33:29;9.40;99.90
10812;DHT22;5458;51.496;7.334;2023-01-09T11:36:08;9.40;99.90
10812;DHT22;5458;51.496;7.334;2023-01-09T11:38:48;9.50;99.90
10812;DHT22;5458;51.496;7.334;2023-01-09T11:41:20;9.50;99.90
10812;DHT22;5458;51.496;7.334;2023-01-09T11:43:49;9.40;99.90
10812;DHT22;5458;51.496;7.334;2023-01-09T11:46:38;9.40;99.90
10812;DHT22;5458;51.496;7.334;2023-01-09T11:51:38;9.30;99.90
10812;DHT22;5458;51.496;7.334;2023-01-09T11:54:29;9.30;99.90
10812;DHT22;5458;51.496;7.334;2023-01-09T11:56:55;9.40;99.90
10812;DHT22;5458;51.496;7.334;2023-01-09T11:59:26;9.30;99.90
10812;DHT22;5458;51.496;7.334;2023-01-09T12:04:41;9.30;99.90
10812;DHT22;5458;51.496;7.334;2023-01-09T12:13:05;9.40;99.90
10812;DHT22;5458;51.496;7.334;2023-01-09T12:18:25;9.40;99.90
10812;DHT22;5458;51.496;7.334;2023-01-09T12:26:27;9.40;99.90
10812;DHT22;5458;51.496;7.334;2023-01-09T12:29:20;9.20;99.90
10812;DHT22;5458;51.496;7.334;2023-01-09T12:34:39;9.10;99.90
10812;DHT22;5458;51.496;7.334;2023-01-09T12:43:29;9.10;99.90
10812;DHT22;5458;51.496;7.334;2023-01-09T12:48:42;9.10;99.90
10812;DHT22;5458;51.496;7.334;2023-01-09T12:51:27;9.10;99.90
10812;DHT22;5458;51.496;7.334;2023-01-09T12:56:47;9.10;99.90
10812;DHT22;5458;51.496;7.334;2023-01-09T12:59:20;9.10;99.90
10812;DHT22;5458;51.496;7.334;2023-01-09T13:01:59;9.10;99.90
10812;DHT22;5458;51.496;7.334;2023-01-09T13:04:31;9.10;99.90
10812;DHT22;5458;51.496;7.334;2023-01-09T13:07:03;9.10;99.90
10812;DHT22;5458;51.496;7.334;2023-01-09T13:12:15;9.10;99.90
10812;DHT22;5458;51.496;7.334;2023-01-09T13:17:24;9.00;99.90
10812;DHT22;5458;51.496;7.334;2023-01-09T13:19:50;9.10;99.90
10812;DHT22;5458;51.496;7.334;2023-01-09T13:22:17;9.10;99.90
10812;DHT22;5458;51.496;7.334;2023-01-09T13:27:20;9.10;99.90
10812;DHT22;5458;51.496;7.334;2023-01-09T13:29:51;9.10;99.90
10812;DHT22;5458;51.496;7.334;2023-01-09T13:34:57;9.10;99.90
10812;DHT22;5458;51.496;7.334;2023-01-09T13:37:29;9.10;99.90
10812;DHT22;5458;51.496;7.334;2023-01-09T13:40:01;9.10;99.90
10812;DHT22;5458;51.496;7.334;2023-01-09T13:42:28;9.10;99.90
10812;DHT22;5458;51.496;7.334;2023-01-09T13:45:26;9.10;99.90
10812;DHT22;5458;51.496;7.334;2023-01-09T13:50:34;9.00;99.90
10812;DHT22;5458;51.496;7.334;2023-01-09T14:06:34;9.00;99.90
10812;DHT22;5458;51.496;7.334;2023-01-09T14:09:19;9.00;99.90
10812;DHT22;5458;51.496;7.334;2023-01-09T14:11:46;9.00;99.90
10812;DHT22;5458;51.496;7.334;2023-01-09T14:14:29;9.00;99.90
10812;DHT22;5458;51.496;7.334;2023-01-09T14:16:57;9.00;99.90
10812;DHT22;5458;51.496;7.334;2023-01-09T14:19:39;9.00;99.90
10812;DHT22;5458;51.496;7.334;2023-01-09T14:22:05;9.00;99.90
10812;DHT22;5458;51.496;7.334;2023-01-09T14:24:39;9.10;99.90
10812;DHT22;5458;51.496;7.334;2023-01-09T14:30:36;9.10;99.90
10812;DHT22;5458;51.496;7.334;2023-01-09T14:35:47;9.00;99.90
10812;DHT22;5458;51.496;7.334;2023-01-09T14:38:33;9.00;99.90
10812;DHT22;5458;51.496;7.334;2023-01-09T14:41:01;9.00;99.90
10812;DHT22;5458;51.496;7.334;2023-01-09T14:43:57;9.00;99.90
10812;DHT22;5458;51.496;7.334;2023-01-09T14:46:31;9.00;99.90
10812;DHT22;5458;51.496;7.334;2023-01-09T14:49:12;9.00;99.90
10812;DHT22;5458;51.496;7.334;2023-01-09T14:51:44;9.10;99.90
10812;DHT22;5458;51.496;7.334;2023-01-09T14:54:27;9.10;99.90
10812;DHT22;5458;51.496;7.334;2023-01-09T14:56:54;9.10;99.90
10812;DHT22;5458;51.496;7.334;2023-01-09T14:59:19;9.10;99.90
10812;DHT22;5458;51.496;7.334;2023-01-09T15:01:47;9.00;99.90
10812;DHT22;5458;51.496;7.334;2023-01-09T15:04:30;9.00;99.90
10812;DHT22;5458;51.496;7.334;2023-01-09T15:06:59;9.00;99.90
10812;DHT22;5458;51.496;7.334;2023-01-09T15:09:32;9.00;99.90
10812;DHT22;5458;51.496;7.334;2023-01-09T15:12:07;9.00;99.90
10812;DHT22;5458;51.496;7.334;2023-01-09T15:14:39;9.00;99.90
10812;DHT22;5458;51.496;7.334;2023-01-09T15:17:12;9.00;99.90
10812;DHT22;5458;51.496;7.334;2023-01-09T15:19:43;9.00;99.90
10812;DHT22;5458;51.496;7.334;2023-01-09T15:22:28;9.00;99.90
10812;DHT22;5458;51.496;7.334;2023-01-09T15:24:54;8.90;99.90
10812;DHT22;5458;51.496;7.334;2023-01-09T15:27:19;8.90;99.90
10812;DHT22;5458;51.496;7.334;2023-01-09T15:29:49;8.90;99.90
10812;DHT22;5458;51.496;7.334;2023-01-09T15:32:27;8.90;99.90
10812;DHT22;5458;51.496;7.334;2023-01-09T15:34:54;8.90;99.90
10812;DHT22;5458;51.496;7.334;2023-01-09T15:37:31;8.80;99.90
10812;DHT22;5458;51.496;7.334;2023-01-09T15:39:59;8.80;99.90
10812;DHT22;5458;51.496;7.334;2023-01-09T15:42:29;8.80;99.90
10812;DHT22;5458;51.496;7.334;2023-01-09T15:47:53;8.80;99.90
10812;DHT22;5458;51.496;7.334;2023-01-09T15:50:28;8.80;99.90
10812;DHT22;5458;51.496;7.334;2023-01-09T15:52:55;8.80;99.90
10812;DHT22;5458;51.496;7.334;2023-01-09T15:55:30;8.80;99.90
10812;DHT22;5458;51.496;7.334;2023-01-09T15:58:04;8.80;99.90
10812;DHT22;5458;51.496;7.334;2023-01-09T16:01:00;8.90;99.90
10812;DHT22;5458;51.496;7.334;2023-01-09T16:03:26;8.90;99.90
10812;DHT22;5458;51.496;7.334;2023-01-09T16:06:08;8.90;99.90
10812;DHT22;5458;51.496;7.334;2023-01-09T16:08:40;8.80;99.90
10812;DHT22;5458;51.496;7.334;2023-01-09T16:11:08;8.80;99.90
10812;DHT22;5458;51.496;7.334;2023-01-09T16:13:45;8.80;99.90
10812;DHT22;5458;51.496;7.334;2023-01-09T16:16:11;8.80;99.90
10812;DHT22;5458;51.496;7.334;2023-01-09T16:18:48;8.80;99.90
10812;DHT22;5458;51.496;7.334;2023-01-09T16:21:32;8.80;99.90
10812;DHT22;5458;51.496;7.334;2023-01-09T16:26:38;8.80;99.90
10812;DHT22;5458;51.496;7.334;2023-01-09T16:29:26;8.80;99.90
10812;DHT22;5458;51.496;7.334;2023-01-09T16:32:00;8.90;99.90
10812;DHT22;5458;51.496;7.334;2023-01-09T16:34:26;8.80;99.90
10812;DHT22;5458;51.496;7.334;2023-01-09T16:36:52;8.80;99.90
10812;DHT22;5458;51.496;7.334;2023-01-09T16:39:18;8.80;99.90
10812;DHT22;5458;51.496;7.334;2023-01-09T16:41:45;8.70;99.90
10812;DHT22;5458;51.496;7.334;2023-01-09T16:44:29;8.80;99.90
10812;DHT22;5458;51.496;7.334;2023-01-09T16:46:55;8.70;99.90
10812;DHT22;5458;51.496;7.334;2023-01-09T16:49:22;8.80;99.90
10812;DHT22;5458;51.496;7.334;2023-01-09T16:51:52;8.70;99.90
10812;DHT22;5458;51.496;7.334;2023-01-09T16:54:18;8.70;99.90
10812;DHT22;5458;51.496;7.334;2023-01-09T16:56:46;8.70;99.90
10812;DHT22;5458;51.496;7.334;2023-01-09T16:59:16;8.70;99.90
10812;DHT22;5458;51.496;7.334;2023-01-09T17:01:45;8.60;99.90
10812;DHT22;5458;51.496;7.334;2023-01-09T17:04:13;8.60;99.90
10812;DHT22;5458;51.496;7.334;2023-01-09T17:06:40;8.60;99.90
10812;DHT22;5458;51.496;7.334;2023-01-09T17:09:10;8.60;99.90
10812;DHT22;5458;51.496;7.334;2023-01-09T17:11:36;8.60;99.90
10812;DHT22;5458;51.496;7.334;2023-01-09T17:14:03;8.60;99.90
10812;DHT22;5458;51.496;7.334;2023-01-09T17:16:29;8.60;99.90
10812;DHT22;5458;51.496;7.334;2023-01-09T17:18:55;8.50;99.90
10812;DHT22;5458;51.496;7.334;2023-01-09T17:21:25;8.50;99.90
10812;DHT22;5458;51.496;7.334;2023-01-09T17:23:53;8.50;99.90
10812;DHT22;5458;51.496;7.334;2023-01-09T17:26:40;8.50;99.90
10812;DHT22;5458;51.496;7.334;2023-01-09T17:29:27;8.40;99.90
10812;DHT22;5458;51.496;7.334;2023-01-09T17:31:55;8.50;99.90
10812;DHT22;5458;51.496;7.334;2023-01-09T17:34:20;8.50;99.90
10812;DHT22;5458;51.496;7.334;2023-01-09T17:36:46;8.50;99.90
10812;DHT22;5458;51.496;7.334;2023-01-09T17:39:13;8.50;99.90
10812;DHT22;5458;51.496;7.334;2023-01-09T17:41:38;8.60;99.90
10812;DHT22;5458;51.496;7.334;2023-01-09T17:44:04;8.50;99.90
10812;DHT22;5458;51.496;7.334;2023-01-09T17:46:35;8.50;99.90
10812;DHT22;5458;51.496;7.334;2023-01-09T17:49:01;8.50;99.90
10812;DHT22;5458;51.496;7.334;2023-01-09T17:51:27;8.50;99.90
10812;DHT22;5458;51.496;7.334;2023-01-09T17:53:54;8.50;99.90
10812;DHT22;5458;51.496;7.334;2023-01-09T17:56:31;8.50;99.90
10812;DHT22;5458;51.496;7.334;2023-01-09T17:58:58;8.50;99.90
10812;DHT22;5458;51.496;7.334;2023-01-09T18:01:24;8.50;99.90
10812;DHT22;5458;51.496;7.334;2023-01-09T18:03:49;8.40;99.90
10812;DHT22;5458;51.496;7.334;2023-01-09T18:06:19;8.40;99.90
10812;DHT22;5458;51.496;7.334;2023-01-09T18:08:45;8.40;99.90
10812;DHT22;5458;51.496;7.334;2023-01-09T18:11:16;8.30;99.90
10812;DHT22;5458;51.496;7.334;2023-01-09T18:13:45;8.30;99.90
10812;DHT22;5458;51.496;7.334;2023-01-09T18:16:14;8.30;99.90
10812;DHT22;5458;51.496;7.334;2023-01-09T18:18:40;8.30;99.90
10812;DHT22;5458;51.496;7.334;2023-01-09T18:21:07;8.30;99.90
10812;DHT22;5458;51.496;7.334;2023-01-09T18:23:33;8.30;99.90